createdAt,value
2023-03-05T00:01:12.710Z,97989.41
2023-03-05T00:03:40.677Z,97990.28
2023-03-05T00:06:08.886Z,97984.41
2023-03-05T00:08:36.594Z,97985.38
2023-03-05T00:11:06.151Z,97983.31
2023-03-05T00:13:34.073Z,97985.13
2023-03-05T00:16:05.307Z,97979.56
2023-03-05T00:18:33.057Z,97984.97
2023-03-05T00:21:00.560Z,97980.69
2023-03-05T00:23:28.492Z,97986.94
2023-03-05T00:25:56.077Z,97984.72
2023-03-05T00:28:23.650Z,97979.44
2023-03-05T00:30:51.198Z,97970.91
2023-03-05T00:33:20.028Z,97963.97
2023-03-05T00:35:47.575Z,97969.94
2023-03-05T00:38:15.188Z,97973.69
2023-03-05T00:40:43.007Z,97971.59
2023-03-05T00:43:11.548Z,97970.09
2023-03-05T00:45:39.957Z,97975.38
2023-03-05T00:48:07.689Z,97971.47
2023-03-05T00:50:36.522Z,97966.75
2023-03-05T00:53:04.155Z,97968.69
2023-03-05T00:55:31.613Z,97969.78
2023-03-05T00:57:59.098Z,97967.16
2023-03-05T01:00:26.717Z,97970.63
2023-03-05T01:02:54.182Z,97961.56
2023-03-05T01:05:21.974Z,97965.06
2023-03-05T01:07:53.525Z,97966.03
2023-03-05T01:10:21.538Z,97957.53
2023-03-05T01:12:48.986Z,97959.09
2023-03-05T01:15:16.604Z,97953.81
2023-03-05T01:17:44.039Z,97949.06
2023-03-05T01:20:14.653Z,97948.66
2023-03-05T01:22:42.146Z,97948.63
2023-03-05T01:25:12.862Z,97932.34
2023-03-05T01:27:40.404Z,97949.50
2023-03-05T01:30:10.056Z,97944.63
2023-03-05T01:32:38.062Z,97942.09
2023-03-05T01:35:07.342Z,97938.78
2023-03-05T01:37:34.908Z,97943.50
2023-03-05T01:40:02.401Z,97936.94
2023-03-05T01:42:31.181Z,97936.38
2023-03-05T01:45:04.481Z,97939.03
2023-03-05T01:47:31.890Z,97939.75
2023-03-05T01:50:00.201Z,97935.28
2023-03-05T01:52:30.532Z,97935.97
2023-03-05T01:55:00.674Z,97942.78
2023-03-05T01:57:34.073Z,97932.06
2023-03-05T02:00:04.860Z,97925.41
2023-03-05T02:02:33.504Z,97925.00
2023-03-05T02:05:04.802Z,97933.31
2023-03-05T02:07:32.792Z,97920.94
2023-03-05T02:10:00.385Z,97927.34
2023-03-05T02:12:27.846Z,97921.22
2023-03-05T02:14:59.606Z,97916.63
2023-03-05T02:17:28.969Z,97912.31
2023-03-05T02:20:03.448Z,97910.22
2023-03-05T02:22:32.484Z,97907.03
2023-03-05T02:24:59.791Z,97907.88
2023-03-05T02:27:34.965Z,97913.16
2023-03-05T02:30:03.049Z,97900.34
2023-03-05T02:32:30.603Z,97898.53
2023-03-05T02:34:58.061Z,97891.28
2023-03-05T02:37:25.757Z,97884.84
2023-03-05T02:39:54.542Z,97876.50
2023-03-05T02:42:22.007Z,97863.16
2023-03-05T02:44:49.433Z,97858.22
2023-03-05T02:47:16.862Z,97866.38
2023-03-05T02:49:44.458Z,97871.53
2023-03-05T02:52:11.897Z,97875.56
2023-03-05T02:54:39.392Z,97876.56
2023-03-05T02:57:08.231Z,97883.63
2023-03-05T02:59:35.837Z,97863.34
2023-03-05T03:02:03.398Z,97870.97
2023-03-05T03:04:30.861Z,97868.34
2023-03-05T03:06:58.331Z,97861.78
2023-03-05T03:09:26.816Z,97865.00
2023-03-05T03:11:54.594Z,97857.06
2023-03-05T03:14:23.569Z,97858.16
2023-03-05T03:16:51.030Z,97855.28
2023-03-05T03:19:18.503Z,97844.97
2023-03-05T03:21:45.974Z,97855.34
2023-03-05T03:24:13.503Z,97852.75
2023-03-05T03:26:40.943Z,97845.34
2023-03-05T03:29:08.467Z,97845.09
2023-03-05T03:31:40.025Z,97835.75
2023-03-05T03:34:07.566Z,97839.53
2023-03-05T03:36:35.712Z,97835.50
2023-03-05T03:39:03.547Z,97847.88
2023-03-05T03:41:30.985Z,97838.84
2023-03-05T03:43:58.685Z,97835.19
2023-03-05T03:46:26.425Z,97829.63
2023-03-05T03:48:55.311Z,97828.25
2023-03-05T03:51:22.757Z,97828.22
2023-03-05T03:53:50.265Z,97829.91
2023-03-05T03:56:17.751Z,97822.09
2023-03-05T03:58:45.336Z,97832.34
2023-03-05T04:01:12.811Z,97824.00
2023-03-05T04:03:40.298Z,97818.03
2023-03-05T04:06:09.376Z,97812.28
2023-03-05T04:08:36.716Z,97811.56
2023-03-05T04:11:04.761Z,97809.78
2023-03-05T04:13:32.243Z,97811.06
2023-03-05T04:15:59.917Z,97808.34
2023-03-05T04:18:27.609Z,97808.69
2023-03-05T04:20:55.347Z,97806.03
2023-03-05T04:23:24.393Z,97807.28
2023-03-05T04:25:51.674Z,97792.16
2023-03-05T04:28:19.102Z,97797.25
2023-03-05T04:30:46.901Z,97795.66
2023-03-05T04:33:14.448Z,97800.69
2023-03-05T04:35:42.014Z,97800.50
2023-03-05T04:38:10.023Z,97796.75
2023-03-05T04:40:39.257Z,97794.78
2023-03-05T04:43:07.412Z,97790.59
2023-03-05T04:45:35.438Z,97796.88
2023-03-05T04:48:03.014Z,97785.34
2023-03-05T04:50:30.581Z,97786.22
2023-03-05T04:52:58.138Z,97790.53
2023-03-05T04:55:25.594Z,97786.75
2023-03-05T04:57:54.546Z,97784.50
2023-03-05T05:00:22.967Z,97790.97
2023-03-05T05:02:52.046Z,97782.22
2023-03-05T05:05:20.841Z,97784.69
2023-03-05T05:07:48.403Z,97790.41
2023-03-05T05:10:16.951Z,97782.63
2023-03-05T05:12:44.637Z,97782.09
2023-03-05T05:15:14.108Z,97774.09
2023-03-05T05:17:41.569Z,97773.63
2023-03-05T05:20:11.976Z,97772.59
2023-03-05T05:22:39.520Z,97773.28
2023-03-05T05:25:07.608Z,97779.44
2023-03-05T05:27:35.108Z,97780.81
2023-03-05T05:30:03.967Z,97776.34
2023-03-05T05:32:32.831Z,97780.81
2023-03-05T05:35:00.401Z,97781.38
2023-03-05T05:37:28.097Z,97778.59
2023-03-05T05:39:55.578Z,97779.94
2023-03-05T05:42:25.103Z,97775.78
2023-03-05T05:44:52.800Z,97788.03
2023-03-05T05:47:20.419Z,97784.44
2023-03-05T05:49:49.212Z,97782.47
2023-03-05T05:52:16.715Z,97777.84
2023-03-05T05:54:44.279Z,97781.69
2023-03-05T05:57:11.730Z,97777.59
2023-03-05T05:59:39.636Z,97780.94
2023-03-05T06:02:08.012Z,97778.72
2023-03-05T06:04:35.883Z,97777.47
2023-03-05T06:07:04.987Z,97778.00
2023-03-05T06:09:32.333Z,97774.69
2023-03-05T06:11:59.794Z,97777.88
2023-03-05T06:14:27.269Z,97778.69
2023-03-05T06:16:54.809Z,97781.22
2023-03-05T06:19:22.323Z,97783.34
2023-03-05T06:21:49.808Z,97786.06
2023-03-05T06:24:19.569Z,97780.53
2023-03-05T06:26:48.486Z,97781.63
2023-03-05T06:29:16.226Z,97783.53
2023-03-05T06:31:43.682Z,97784.97
2023-03-05T06:34:11.415Z,97777.31
2023-03-05T06:36:40.369Z,97772.13
2023-03-05T06:39:08.260Z,97775.31
2023-03-05T06:41:37.067Z,97774.66
2023-03-05T06:44:04.666Z,97781.84
2023-03-05T06:46:33.797Z,97779.97
2023-03-05T06:49:03.690Z,97774.66
2023-03-05T06:51:33.529Z,97772.72
2023-03-05T06:54:02.496Z,97785.94
2023-03-05T06:56:30.021Z,97785.94
2023-03-05T06:58:59.132Z,97792.38
2023-03-05T07:01:26.652Z,97787.22
2023-03-05T07:03:58.834Z,97786.78
2023-03-05T07:06:27.343Z,97783.00
2023-03-05T07:08:55.875Z,97789.31
2023-03-05T07:11:24.106Z,97784.63
2023-03-05T07:13:52.252Z,97783.41
2023-03-05T07:16:23.278Z,97779.63
2023-03-05T07:18:51.156Z,97782.41
2023-03-05T07:21:20.302Z,97778.56
2023-03-05T07:23:47.874Z,97781.69
2023-03-05T07:26:16.144Z,97778.25
2023-03-05T07:28:43.956Z,97772.00
2023-03-05T07:31:14.969Z,97770.56
2023-03-05T07:33:43.788Z,97767.38
2023-03-05T07:36:12.907Z,97760.69
2023-03-05T07:38:40.614Z,97768.31
2023-03-05T07:41:11.274Z,97766.53
2023-03-05T07:43:39.186Z,97769.31
2023-03-05T07:46:08.208Z,97765.78
2023-03-05T07:48:35.978Z,97766.50
2023-03-05T07:51:06.862Z,97761.88
2023-03-05T07:53:34.727Z,97765.16
2023-03-05T07:56:02.260Z,97768.78
2023-03-05T07:58:29.753Z,97772.81
2023-03-05T08:00:57.199Z,97767.41
2023-03-05T08:03:24.652Z,97763.25
2023-03-05T08:05:52.094Z,97758.31
2023-03-05T08:08:20.911Z,97758.72
2023-03-05T08:10:48.416Z,97756.19
2023-03-05T08:13:15.991Z,97756.91
2023-03-05T08:15:43.446Z,97752.97
2023-03-05T08:18:10.987Z,97752.78
2023-03-05T08:20:38.455Z,97748.72
2023-03-05T08:23:05.965Z,97747.59
2023-03-05T08:25:34.778Z,97752.47
2023-03-05T08:28:02.261Z,97754.31
2023-03-05T08:30:29.821Z,97759.84
2023-03-05T08:32:57.326Z,97748.03
2023-03-05T08:35:25.378Z,97748.53
2023-03-05T08:37:52.873Z,97745.44
2023-03-05T08:40:20.558Z,97741.00
2023-03-05T08:42:51.873Z,97741.00
2023-03-05T08:45:19.378Z,97740.91
2023-03-05T08:47:46.815Z,97737.50
2023-03-05T08:50:14.295Z,97736.03
2023-03-05T08:52:41.843Z,97732.25
2023-03-05T08:55:10.042Z,97737.50
2023-03-05T08:57:37.493Z,97735.41
2023-03-05T09:00:10.095Z,97731.59
2023-03-05T09:02:37.746Z,97740.00
2023-03-05T09:05:05.611Z,97733.41
2023-03-05T09:07:33.066Z,97729.66
2023-03-05T09:10:00.533Z,97732.34
2023-03-05T09:12:27.979Z,97725.56
2023-03-05T09:14:55.581Z,97724.09
2023-03-05T09:17:24.898Z,97721.75
2023-03-05T09:19:52.348Z,97721.09
2023-03-05T09:22:19.805Z,97718.44
2023-03-05T09:24:47.255Z,97715.50
2023-03-05T09:27:14.715Z,97719.47
2023-03-05T09:29:43.198Z,97720.59
2023-03-05T09:32:11.080Z,97716.16
2023-03-05T09:34:40.103Z,97722.31
2023-03-05T09:37:07.412Z,97722.41
2023-03-05T09:39:34.873Z,97716.72
2023-03-05T09:42:24.858Z,97720.53
2023-03-05T09:45:03.525Z,97724.28
2023-03-05T09:47:47.039Z,97722.06
2023-03-05T09:50:32.250Z,97725.00
2023-03-05T09:53:05.939Z,97720.25
2023-03-05T09:55:40.245Z,97715.19
2023-03-05T09:58:13.277Z,97722.00
2023-03-05T10:00:45.100Z,97723.56
2023-03-05T10:03:18.841Z,97714.81
2023-03-05T10:05:56.961Z,97716.88
2023-03-05T10:08:31.329Z,97710.75
2023-03-05T10:11:02.674Z,97711.72
2023-03-05T10:13:35.636Z,97706.38
2023-03-05T10:16:15.601Z,97711.53
2023-03-05T10:18:52.609Z,97699.97
2023-03-05T10:21:30.543Z,97697.28
2023-03-05T10:24:10.035Z,97699.84
2023-03-05T10:26:55.641Z,97690.44
2023-03-05T10:29:41.115Z,97689.56
2023-03-05T10:32:23.691Z,97674.50
2023-03-05T10:35:17.207Z,97671.34
2023-03-05T10:38:02.135Z,97672.91
2023-03-05T10:40:37.176Z,97668.31
2023-03-05T10:43:15.878Z,97669.38
2023-03-05T10:45:45.479Z,97663.47
2023-03-05T10:48:21.538Z,97669.59
2023-03-05T10:50:52.600Z,97656.13
2023-03-05T10:53:29.248Z,97654.22
2023-03-05T10:55:57.480Z,97661.28
2023-03-05T10:58:26.173Z,97656.81
2023-03-05T11:01:02.632Z,97647.59
2023-03-05T11:03:49.807Z,97654.38
2023-03-05T11:06:28.606Z,97646.66
2023-03-05T11:08:58.203Z,97646.28
2023-03-05T11:11:25.969Z,97640.16
2023-03-05T11:13:57.516Z,97628.06
2023-03-05T11:16:27.583Z,97628.88
2023-03-05T11:19:20.529Z,97626.69
2023-03-05T11:22:05.359Z,97629.56
2023-03-05T11:24:34.676Z,97620.47
2023-03-05T11:27:02.184Z,97616.69
2023-03-05T11:29:32.439Z,97607.00
2023-03-05T11:32:17.234Z,97606.69
2023-03-05T11:34:44.916Z,97607.28
2023-03-05T11:37:23.974Z,97602.03
2023-03-05T11:40:15.389Z,97605.53
2023-03-05T11:42:44.173Z,97596.03
2023-03-05T11:45:18.072Z,97599.69
2023-03-05T11:47:49.523Z,97604.63
2023-03-05T11:50:22.902Z,97600.03
2023-03-05T11:52:52.520Z,97591.03
2023-03-05T11:55:28.846Z,97595.50
2023-03-05T11:58:08.935Z,97601.63
2023-03-05T12:00:39.340Z,97594.53
2023-03-05T12:03:12.668Z,97591.91
2023-03-05T12:05:42.841Z,97597.19
2023-03-05T12:08:15.278Z,97586.41
2023-03-05T12:10:44.415Z,97575.84
2023-03-05T12:13:23.115Z,97566.47
2023-03-05T12:16:04.606Z,97566.03
2023-03-05T12:18:41.113Z,97558.81
2023-03-05T12:21:16.129Z,97559.72
2023-03-05T12:23:49.760Z,97550.84
2023-03-05T12:26:19.650Z,97550.44
2023-03-05T12:28:56.064Z,97539.31
2023-03-05T12:31:38.595Z,97546.69
2023-03-05T12:34:36.703Z,97534.53
2023-03-05T12:37:04.642Z,97525.38
2023-03-05T12:39:52.518Z,97530.66
2023-03-05T12:42:52.694Z,97532.94
2023-03-05T12:45:43.081Z,97533.56
2023-03-05T12:48:44.218Z,97520.69
2023-03-05T12:51:16.221Z,97533.25
2023-03-05T12:53:43.648Z,97533.34
2023-03-05T12:56:25.011Z,97523.69
2023-03-05T12:58:56.737Z,97521.41
2023-03-05T13:01:35.042Z,97518.91
2023-03-05T13:04:10.629Z,97509.31
2023-03-05T13:06:40.095Z,97513.97
2023-03-05T13:09:16.782Z,97509.25
2023-03-05T13:11:47.582Z,97507.66
2023-03-05T13:14:37.244Z,97504.25
2023-03-05T13:17:32.370Z,97506.78
2023-03-05T13:20:01.148Z,97511.59
2023-03-05T13:22:28.846Z,97503.44
2023-03-05T13:25:13.670Z,97508.16
2023-03-05T13:27:41.719Z,97501.63
2023-03-05T13:30:23.311Z,97508.22
2023-03-05T13:32:53.177Z,97503.16
2023-03-05T13:35:22.418Z,97503.00
2023-03-05T13:37:50.440Z,97498.88
2023-03-05T13:40:25.007Z,97495.69
2023-03-05T13:42:54.146Z,97501.66
2023-03-05T13:45:26.190Z,97488.88
2023-03-05T13:47:55.826Z,97484.75
2023-03-05T13:50:25.711Z,97482.91
2023-03-05T13:52:53.519Z,97484.28
2023-03-05T13:55:21.543Z,97478.19
2023-03-05T13:57:51.224Z,97478.78
2023-03-05T14:00:32.943Z,97479.19
2023-03-05T14:03:08.072Z,97468.09
2023-03-05T14:05:35.602Z,97469.88
2023-03-05T14:08:03.365Z,97464.59
2023-03-05T14:10:34.700Z,97458.56
2023-03-05T14:13:05.647Z,97459.81
2023-03-05T14:15:36.435Z,97462.47
2023-03-05T14:18:19.613Z,97460.31
2023-03-05T14:21:03.348Z,97445.50
2023-03-05T14:23:43.376Z,97448.66
2023-03-05T14:26:30.982Z,97448.00
2023-03-05T14:29:01.160Z,97446.56
2023-03-05T14:31:31.796Z,97450.84
2023-03-05T14:34:04.945Z,97438.06
2023-03-05T14:36:33.548Z,97437.69
2023-03-05T14:39:02.000Z,97430.03
2023-03-05T14:41:36.784Z,97434.50
2023-03-05T14:44:12.532Z,97436.63
2023-03-05T14:46:42.000Z,97433.19
2023-03-05T14:49:09.530Z,97428.41
2023-03-05T14:51:40.176Z,97429.94
2023-03-05T14:54:07.941Z,97421.94
2023-03-05T14:56:35.502Z,97414.03
2023-03-05T14:59:02.994Z,97408.78
2023-03-05T15:01:30.554Z,97404.09
2023-03-05T15:04:00.967Z,97404.31
2023-03-05T15:06:32.919Z,97397.50
2023-03-05T15:09:00.473Z,97406.16
2023-03-05T15:11:28.135Z,97395.47
2023-03-05T15:13:55.680Z,97400.56
2023-03-05T15:16:23.720Z,97389.16
2023-03-05T15:18:51.197Z,97389.47
2023-03-05T15:21:19.991Z,97384.16
2023-03-05T15:23:47.459Z,97382.34
2023-03-05T15:26:15.793Z,97374.25
2023-03-05T15:28:43.931Z,97375.75
2023-03-05T15:31:11.900Z,97369.28
2023-03-05T15:33:41.621Z,97367.16
2023-03-05T15:36:09.837Z,97366.59
2023-03-05T15:38:38.849Z,97359.22
2023-03-05T15:41:06.272Z,97359.03
2023-03-05T15:43:33.787Z,97354.53
2023-03-05T15:46:01.329Z,97364.38
2023-03-05T15:48:28.999Z,97351.47
2023-03-05T15:50:56.464Z,97355.38
2023-03-05T15:53:23.907Z,97348.19
2023-03-05T15:55:52.671Z,97351.88
2023-03-05T15:58:21.020Z,97344.75
2023-03-05T16:00:48.947Z,97340.78
2023-03-05T16:03:16.699Z,97345.53
2023-03-05T16:05:44.406Z,97346.50
2023-03-05T16:08:11.933Z,97334.69
2023-03-05T16:10:40.862Z,97330.19
2023-03-05T16:13:14.348Z,97333.78
2023-03-05T16:15:43.253Z,97334.56
2023-03-05T16:18:12.673Z,97324.88
2023-03-05T16:20:40.518Z,97325.66
2023-03-05T16:23:08.235Z,97320.13
2023-03-05T16:25:35.765Z,97328.66
2023-03-05T16:28:03.619Z,97321.06
2023-03-05T16:30:33.232Z,97318.75
2023-03-05T16:33:00.963Z,97318.91
2023-03-05T16:35:28.488Z,97320.75
2023-03-05T16:37:56.141Z,97319.38
2023-03-05T16:40:23.999Z,97311.06
2023-03-05T16:42:51.503Z,97315.72
2023-03-05T16:45:18.958Z,97309.81
2023-03-05T16:47:47.837Z,97308.38
2023-03-05T16:50:15.291Z,97312.31
2023-03-05T16:52:42.762Z,97308.34
2023-03-05T16:55:10.614Z,97312.09
2023-03-05T16:57:39.440Z,97317.47
2023-03-05T17:00:09.036Z,97316.72
2023-03-05T17:02:36.527Z,97307.09
2023-03-05T17:05:05.949Z,97306.75
2023-03-05T17:07:33.435Z,97304.16
2023-03-05T17:10:00.865Z,97308.03
2023-03-05T17:12:28.377Z,97309.03
2023-03-05T17:14:55.819Z,97303.78
2023-03-05T17:17:23.290Z,97308.25
2023-03-05T17:19:50.827Z,97297.06
2023-03-05T17:22:19.695Z,97301.97
2023-03-05T17:24:47.982Z,97298.00
2023-03-05T17:27:18.645Z,97293.28
2023-03-05T17:29:46.301Z,97289.97
2023-03-05T17:32:13.982Z,97300.91
2023-03-05T17:34:43.213Z,97299.78
2023-03-05T17:37:10.741Z,97300.25
2023-03-05T17:39:40.667Z,97297.47
2023-03-05T17:42:08.207Z,97290.13
2023-03-05T17:44:35.723Z,97290.00
2023-03-05T17:47:03.174Z,97291.00
2023-03-05T17:49:30.682Z,97297.25
2023-03-05T17:51:58.127Z,97294.25
2023-03-05T17:54:25.663Z,97291.31
2023-03-05T17:56:56.155Z,97286.19
2023-03-05T17:59:23.804Z,97289.16
2023-03-05T18:01:51.614Z,97295.09
2023-03-05T18:04:19.510Z,97287.94
2023-03-05T18:06:47.154Z,97298.78
2023-03-05T18:09:14.694Z,97296.41
2023-03-05T18:11:42.274Z,97298.28
2023-03-05T18:14:11.211Z,97299.59
2023-03-05T18:16:38.715Z,97301.72
2023-03-05T18:19:06.265Z,97297.03
2023-03-05T18:21:33.546Z,97296.41
2023-03-05T18:24:00.991Z,97294.47
2023-03-05T18:26:28.461Z,97295.75
2023-03-05T18:28:55.958Z,97298.00
2023-03-05T18:31:24.942Z,97298.50
2023-03-05T18:33:52.448Z,97284.66
2023-03-05T18:36:19.992Z,97290.31
2023-03-05T18:38:47.400Z,97290.75
2023-03-05T18:41:20.382Z,97277.53
2023-03-05T18:43:48.032Z,97276.38
2023-03-05T18:46:15.604Z,97273.56
2023-03-05T18:48:44.472Z,97276.19
2023-03-05T18:51:15.798Z,97279.69
2023-03-05T18:53:43.308Z,97276.56
2023-03-05T18:56:11.483Z,97275.41
2023-03-05T18:58:39.479Z,97267.94
2023-03-05T19:01:09.101Z,97277.84
2023-03-05T19:03:36.605Z,97273.72
2023-03-05T19:06:07.673Z,97280.94
2023-03-05T19:08:35.526Z,97271.19
2023-03-05T19:11:04.046Z,97272.38
2023-03-05T19:13:40.464Z,97271.97
2023-03-05T19:16:13.044Z,97262.47
2023-03-05T19:19:16.155Z,97264.13
2023-03-05T19:21:46.644Z,97265.75
2023-03-05T19:24:14.654Z,97265.84
2023-03-05T19:26:42.906Z,97262.47
2023-03-05T19:29:10.730Z,97263.06
2023-03-05T19:31:39.128Z,97258.97
2023-03-05T19:34:06.906Z,97256.47
2023-03-05T19:36:35.934Z,97262.09
2023-03-05T19:39:08.392Z,97260.47
2023-03-05T19:41:36.699Z,97257.13
2023-03-05T19:44:05.170Z,97257.94
2023-03-05T19:46:33.045Z,97251.00
2023-03-05T19:49:00.523Z,97252.19
2023-03-05T19:51:28.327Z,97253.44
2023-03-05T19:53:55.794Z,97257.16
2023-03-05T19:56:24.735Z,97248.72
2023-03-05T19:58:52.656Z,97240.59
2023-03-05T20:01:22.704Z,97240.09
2023-03-05T20:03:52.124Z,97237.56
2023-03-05T20:06:20.428Z,97238.94
2023-03-05T20:08:48.566Z,97228.16
2023-03-05T20:11:18.144Z,97230.78
2023-03-05T20:13:47.131Z,97230.97
2023-03-05T20:16:16.569Z,97229.09
2023-03-05T20:18:44.581Z,97230.94
2023-03-05T20:21:12.305Z,97228.13
2023-03-05T20:23:40.013Z,97226.63
2023-03-05T20:26:07.471Z,97220.91
2023-03-05T20:28:35.635Z,97224.97
2023-03-05T20:31:04.541Z,97224.59
2023-03-05T20:33:32.103Z,97225.50
2023-03-05T20:36:01.191Z,97216.31
2023-03-05T20:38:30.329Z,97228.41
2023-03-05T20:40:59.443Z,97222.00
2023-03-05T20:43:29.121Z,97218.03
2023-03-05T20:45:57.963Z,97216.16
2023-03-05T20:48:30.437Z,97207.13
2023-03-05T20:51:00.612Z,97213.69
2023-03-05T20:53:28.720Z,97202.16
2023-03-05T20:55:56.219Z,97205.31
2023-03-05T20:58:23.819Z,97203.16
2023-03-05T21:00:51.299Z,97202.44
2023-03-05T21:03:18.760Z,97199.81
2023-03-05T21:05:47.735Z,97195.88
2023-03-05T21:08:15.087Z,97199.38
2023-03-05T21:10:44.519Z,97197.81
2023-03-05T21:13:12.017Z,97188.06
2023-03-05T21:15:41.244Z,97188.41
2023-03-05T21:18:09.031Z,97180.66
2023-03-05T21:20:36.476Z,97183.97
2023-03-05T21:23:05.355Z,97187.56
2023-03-05T21:25:34.355Z,97181.97
2023-03-05T21:28:02.849Z,97180.47
2023-03-05T21:30:34.264Z,97179.28
2023-03-05T21:33:03.049Z,97179.75
2023-03-05T21:35:32.427Z,97174.78
2023-03-05T21:37:59.980Z,97174.72
2023-03-05T21:40:29.765Z,97172.69
2023-03-05T21:42:57.388Z,97156.63
2023-03-05T21:45:28.250Z,97156.81
2023-03-05T21:47:56.246Z,97164.47
2023-03-05T21:50:25.813Z,97161.41
2023-03-05T21:52:53.817Z,97156.50
2023-03-05T21:55:24.883Z,97155.31
2023-03-05T21:57:53.721Z,97146.75
2023-03-05T22:00:23.083Z,97150.75
2023-03-05T22:02:50.756Z,97147.56
2023-03-05T22:05:18.426Z,97151.31
2023-03-05T22:07:47.140Z,97139.28
2023-03-05T22:10:16.138Z,97137.56
2023-03-05T22:13:12.345Z,97133.50
2023-03-05T22:15:45.678Z,97125.00
2023-03-05T22:18:13.563Z,97124.81
2023-03-05T22:20:41.220Z,97132.81
2023-03-05T22:23:11.059Z,97129.81
2023-03-05T22:25:38.940Z,97134.63
2023-03-05T22:28:09.232Z,97129.66
2023-03-05T22:30:36.767Z,97134.22
2023-03-05T22:33:04.330Z,97120.72
2023-03-05T22:35:31.915Z,97119.91
2023-03-05T22:37:59.868Z,97113.47
2023-03-05T22:40:27.338Z,97113.09
2023-03-05T22:42:54.796Z,97105.50
2023-03-05T22:45:23.729Z,97098.09
2023-03-05T22:47:52.168Z,97098.88
2023-03-05T22:50:19.768Z,97101.56
2023-03-05T22:52:47.580Z,97103.03
2023-03-05T22:55:16.507Z,97090.31
2023-03-05T22:57:44.868Z,97099.91
2023-03-05T23:00:17.168Z,97087.50
2023-03-05T23:02:46.266Z,97089.66
2023-03-05T23:05:13.730Z,97087.69
2023-03-05T23:07:43.128Z,97077.25
2023-03-05T23:10:14.694Z,97075.59
2023-03-05T23:12:45.967Z,97067.47
2023-03-05T23:15:15.368Z,97075.28
2023-03-05T23:17:43.234Z,97065.47
2023-03-05T23:20:15.858Z,97067.31
2023-03-05T23:22:44.949Z,97065.66
2023-03-05T23:25:13.204Z,97063.84
2023-03-05T23:27:41.468Z,97060.53
2023-03-05T23:30:19.410Z,97061.78
2023-03-05T23:32:49.192Z,97048.59
2023-03-05T23:35:20.743Z,97044.31
2023-03-05T23:37:48.284Z,97046.78
2023-03-05T23:40:18.058Z,97048.13
2023-03-05T23:42:45.689Z,97045.31
2023-03-05T23:45:15.842Z,97045.97
2023-03-05T23:47:43.424Z,97045.31
2023-03-05T23:50:14.818Z,97049.06
2023-03-05T23:52:44.403Z,97046.13
2023-03-05T23:55:16.123Z,97042.81
2023-03-05T23:57:44.044Z,97046.31
